sensor_id;sensor_type;location;lat;lon;timestamp;P1;durP1;ratioP1;P2;durP2;ratioP2
75038;SDS011;63609;49.992;14.512;2023-03-14T00:01:17;7.20;;;3.00;;
75038;SDS011;63609;49.992;14.512;2023-03-14T00:03:47;8.15;;;3.65;;
75038;SDS011;63609;49.992;14.512;2023-03-14T00:06:14;7.00;;;3.30;;
75038;SDS011;63609;49.992;14.512;2023-03-14T00:08:42;7.03;;;3.17;;
75038;SDS011;63609;49.992;14.512;2023-03-14T00:11:15;6.25;;;3.22;;
75038;SDS011;63609;49.992;14.512;2023-03-14T00:13:46;4.82;;;2.70;;
75038;SDS011;63609;49.992;14.512;2023-03-14T00:16:14;8.88;;;4.43;;
75038;SDS011;63609;49.992;14.512;2023-03-14T00:18:41;8.65;;;4.88;;
75038;SDS011;63609;49.992;14.512;2023-03-14T00:21:09;8.68;;;3.55;;
75038;SDS011;63609;49.992;14.512;2023-03-14T00:23:38;8.32;;;3.20;;
75038;SDS011;63609;49.992;14.512;2023-03-14T00:26:07;6.57;;;3.03;;
75038;SDS011;63609;49.992;14.512;2023-03-14T00:28:36;6.55;;;2.90;;
75038;SDS011;63609;49.992;14.512;2023-03-14T00:31:09;6.47;;;3.13;;
75038;SDS011;63609;49.992;14.512;2023-03-14T00:33:40;7.28;;;3.15;;
75038;SDS011;63609;49.992;14.512;2023-03-14T00:36:09;6.57;;;3.22;;
75038;SDS011;63609;49.992;14.512;2023-03-14T00:38:39;6.25;;;3.40;;
75038;SDS011;63609;49.992;14.512;2023-03-14T00:41:08;7.03;;;3.20;;
75038;SDS011;63609;49.992;14.512;2023-03-14T00:43:37;6.82;;;3.20;;
75038;SDS011;63609;49.992;14.512;2023-03-14T00:46:04;10.70;;;3.40;;
75038;SDS011;63609;49.992;14.512;2023-03-14T00:48:32;6.03;;;3.00;;
75038;SDS011;63609;49.992;14.512;2023-03-14T00:51:00;6.90;;;3.08;;
75038;SDS011;63609;49.992;14.512;2023-03-14T00:53:27;7.28;;;3.00;;
75038;SDS011;63609;49.992;14.512;2023-03-14T00:55:54;6.38;;;2.58;;
75038;SDS011;63609;49.992;14.512;2023-03-14T00:58:21;4.85;;;2.65;;
75038;SDS011;63609;49.992;14.512;2023-03-14T01:00:49;7.75;;;2.63;;
75038;SDS011;63609;49.992;14.512;2023-03-14T01:03:16;5.60;;;2.45;;
75038;SDS011;63609;49.992;14.512;2023-03-14T01:05:45;6.05;;;3.00;;
75038;SDS011;63609;49.992;14.512;2023-03-14T01:08:12;5.45;;;2.33;;
75038;SDS011;63609;49.992;14.512;2023-03-14T01:10:39;4.50;;;2.13;;
75038;SDS011;63609;49.992;14.512;2023-03-14T01:13:07;8.35;;;2.45;;
75038;SDS011;63609;49.992;14.512;2023-03-14T01:15:37;6.57;;;2.53;;
75038;SDS011;63609;49.992;14.512;2023-03-14T01:18:04;4.50;;;2.00;;
75038;SDS011;63609;49.992;14.512;2023-03-14T01:20:36;4.63;;;2.15;;
75038;SDS011;63609;49.992;14.512;2023-03-14T01:23:08;4.57;;;1.63;;
75038;SDS011;63609;49.992;14.512;2023-03-14T01:25:35;3.92;;;1.50;;
75038;SDS011;63609;49.992;14.512;2023-03-14T01:28:08;3.95;;;1.50;;
75038;SDS011;63609;49.992;14.512;2023-03-14T01:30:35;3.80;;;1.38;;
75038;SDS011;63609;49.992;14.512;2023-03-14T01:33:02;2.88;;;1.17;;
75038;SDS011;63609;49.992;14.512;2023-03-14T01:35:30;3.03;;;1.38;;
75038;SDS011;63609;49.992;14.512;2023-03-14T01:37:59;4.63;;;1.67;;
75038;SDS011;63609;49.992;14.512;2023-03-14T01:40:26;4.40;;;1.38;;
75038;SDS011;63609;49.992;14.512;2023-03-14T01:42:54;3.00;;;1.38;;
75038;SDS011;63609;49.992;14.512;2023-03-14T01:51:02;2.75;;;1.15;;
75038;SDS011;63609;49.992;14.512;2023-03-14T01:53:38;4.80;;;1.90;;
75038;SDS011;63609;49.992;14.512;2023-03-14T01:56:08;3.97;;;1.77;;
75038;SDS011;63609;49.992;14.512;2023-03-14T01:58:40;3.70;;;1.58;;
75038;SDS011;63609;49.992;14.512;2023-03-14T02:01:11;4.13;;;1.90;;
75038;SDS011;63609;49.992;14.512;2023-03-14T02:03:52;4.53;;;2.22;;
75038;SDS011;63609;49.992;14.512;2023-03-14T02:06:34;2.97;;;1.60;;
75038;SDS011;63609;49.992;14.512;2023-03-14T02:09:07;5.35;;;1.75;;
75038;SDS011;63609;49.992;14.512;2023-03-14T02:11:34;3.38;;;1.38;;
75038;SDS011;63609;49.992;14.512;2023-03-14T02:14:09;3.35;;;1.52;;
75038;SDS011;63609;49.992;14.512;2023-03-14T02:17:17;3.25;;;1.48;;
75038;SDS011;63609;49.992;14.512;2023-03-14T02:22:56;3.83;;;1.63;;
75038;SDS011;63609;49.992;14.512;2023-03-14T02:28:11;4.00;;;2.03;;
75038;SDS011;63609;49.992;14.512;2023-03-14T02:30:38;4.70;;;1.35;;
75038;SDS011;63609;49.992;14.512;2023-03-14T02:33:10;4.43;;;1.50;;
75038;SDS011;63609;49.992;14.512;2023-03-14T02:41:30;4.38;;;1.92;;
75038;SDS011;63609;49.992;14.512;2023-03-14T02:44:02;5.07;;;2.53;;
75038;SDS011;63609;49.992;14.512;2023-03-14T02:46:30;3.55;;;2.08;;
75038;SDS011;63609;49.992;14.512;2023-03-14T02:49:02;5.75;;;2.72;;
75038;SDS011;63609;49.992;14.512;2023-03-14T02:51:34;3.83;;;1.80;;
75038;SDS011;63609;49.992;14.512;2023-03-14T02:54:05;3.60;;;1.73;;
75038;SDS011;63609;49.992;14.512;2023-03-14T02:56:32;5.20;;;2.05;;
75038;SDS011;63609;49.992;14.512;2023-03-14T02:59:04;3.47;;;1.60;;
75038;SDS011;63609;49.992;14.512;2023-03-14T03:01:41;4.55;;;1.90;;
75038;SDS011;63609;49.992;14.512;2023-03-14T03:04:08;3.20;;;1.90;;
75038;SDS011;63609;49.992;14.512;2023-03-14T03:06:35;4.70;;;2.53;;
75038;SDS011;63609;49.992;14.512;2023-03-14T03:09:02;4.30;;;2.20;;
75038;SDS011;63609;49.992;14.512;2023-03-14T03:11:30;4.70;;;1.80;;
75038;SDS011;63609;49.992;14.512;2023-03-14T03:13:58;4.57;;;1.48;;
75038;SDS011;63609;49.992;14.512;2023-03-14T03:16:28;2.83;;;1.48;;
75038;SDS011;63609;49.992;14.512;2023-03-14T03:18:59;3.75;;;1.50;;
75038;SDS011;63609;49.992;14.512;2023-03-14T03:21:26;4.00;;;1.50;;
75038;SDS011;63609;49.992;14.512;2023-03-14T03:23:53;1.48;;;0.80;;
75038;SDS011;63609;49.992;14.512;2023-03-14T03:26:20;2.88;;;1.40;;
75038;SDS011;63609;49.992;14.512;2023-03-14T03:28:49;2.78;;;1.30;;
75038;SDS011;63609;49.992;14.512;2023-03-14T03:31:22;2.97;;;1.00;;
75038;SDS011;63609;49.992;14.512;2023-03-14T03:33:50;2.85;;;1.23;;
75038;SDS011;63609;49.992;14.512;2023-03-14T03:36:20;2.83;;;1.15;;
75038;SDS011;63609;49.992;14.512;2023-03-14T03:38:49;3.60;;;1.42;;
75038;SDS011;63609;49.992;14.512;2023-03-14T03:41:17;3.70;;;0.90;;
75038;SDS011;63609;49.992;14.512;2023-03-14T03:43:46;3.58;;;1.48;;
75038;SDS011;63609;49.992;14.512;2023-03-14T03:46:18;2.55;;;1.00;;
75038;SDS011;63609;49.992;14.512;2023-03-14T03:48:45;3.47;;;1.50;;
75038;SDS011;63609;49.992;14.512;2023-03-14T03:51:13;2.90;;;1.35;;
75038;SDS011;63609;49.992;14.512;2023-03-14T03:53:41;2.25;;;1.20;;
75038;SDS011;63609;49.992;14.512;2023-03-14T03:56:11;4.18;;;1.45;;
75038;SDS011;63609;49.992;14.512;2023-03-14T03:58:40;3.72;;;1.88;;
75038;SDS011;63609;49.992;14.512;2023-03-14T04:01:10;3.63;;;1.65;;
75038;SDS011;63609;49.992;14.512;2023-03-14T04:03:39;3.47;;;1.65;;
75038;SDS011;63609;49.992;14.512;2023-03-14T04:06:08;2.90;;;1.40;;
75038;SDS011;63609;49.992;14.512;2023-03-14T04:08:39;4.05;;;1.50;;
75038;SDS011;63609;49.992;14.512;2023-03-14T04:11:16;3.70;;;1.45;;
75038;SDS011;63609;49.992;14.512;2023-03-14T04:13:54;3.75;;;1.77;;
75038;SDS011;63609;49.992;14.512;2023-03-14T04:16:25;4.80;;;1.60;;
75038;SDS011;63609;49.992;14.512;2023-03-14T04:19:01;3.70;;;1.52;;
75038;SDS011;63609;49.992;14.512;2023-03-14T04:21:30;3.25;;;1.70;;
75038;SDS011;63609;49.992;14.512;2023-03-14T04:23:59;3.40;;;1.50;;
75038;SDS011;63609;49.992;14.512;2023-03-14T04:26:30;4.55;;;1.73;;
75038;SDS011;63609;49.992;14.512;2023-03-14T04:28:57;2.38;;;1.30;;
75038;SDS011;63609;49.992;14.512;2023-03-14T04:31:25;4.65;;;1.70;;
75038;SDS011;63609;49.992;14.512;2023-03-14T04:33:53;4.63;;;1.85;;
75038;SDS011;63609;49.992;14.512;2023-03-14T04:36:31;4.55;;;1.90;;
75038;SDS011;63609;49.992;14.512;2023-03-14T04:39:02;4.43;;;1.70;;
75038;SDS011;63609;49.992;14.512;2023-03-14T04:41:33;3.50;;;1.60;;
75038;SDS011;63609;49.992;14.512;2023-03-14T04:44:09;3.75;;;1.30;;
75038;SDS011;63609;49.992;14.512;2023-03-14T04:46:36;2.95;;;1.35;;
75038;SDS011;63609;49.992;14.512;2023-03-14T04:49:06;3.10;;;1.15;;
75038;SDS011;63609;49.992;14.512;2023-03-14T04:51:33;2.70;;;1.40;;
75038;SDS011;63609;49.992;14.512;2023-03-14T04:54:00;3.72;;;1.40;;
75038;SDS011;63609;49.992;14.512;2023-03-14T04:56:27;2.65;;;1.30;;
75038;SDS011;63609;49.992;14.512;2023-03-14T04:58:55;3.70;;;1.70;;
75038;SDS011;63609;49.992;14.512;2023-03-14T05:01:25;3.95;;;1.75;;
75038;SDS011;63609;49.992;14.512;2023-03-14T05:04:14;4.15;;;1.65;;
75038;SDS011;63609;49.992;14.512;2023-03-14T05:06:51;3.92;;;1.52;;
75038;SDS011;63609;49.992;14.512;2023-03-14T05:09:28;5.15;;;1.88;;
75038;SDS011;63609;49.992;14.512;2023-03-14T05:12:13;4.43;;;1.60;;
75038;SDS011;63609;49.992;14.512;2023-03-14T05:14:59;2.60;;;1.35;;
75038;SDS011;63609;49.992;14.512;2023-03-14T05:17:47;3.10;;;1.38;;
75038;SDS011;63609;49.992;14.512;2023-03-14T05:20:43;3.28;;;1.10;;
75038;SDS011;63609;49.992;14.512;2023-03-14T05:23:39;2.28;;;1.08;;
75038;SDS011;63609;49.992;14.512;2023-03-14T05:26:32;2.40;;;0.90;;
75038;SDS011;63609;49.992;14.512;2023-03-14T05:29:20;1.92;;;1.05;;
75038;SDS011;63609;49.992;14.512;2023-03-14T05:32:25;2.67;;;1.42;;
75038;SDS011;63609;49.992;14.512;2023-03-14T05:35:01;1.80;;;0.80;;
75038;SDS011;63609;49.992;14.512;2023-03-14T05:37:42;0.52;;;0.40;;
75038;SDS011;63609;49.992;14.512;2023-03-14T05:40:30;0.73;;;0.40;;
75038;SDS011;63609;49.992;14.512;2023-03-14T05:43:12;1.85;;;0.40;;
75038;SDS011;63609;49.992;14.512;2023-03-14T05:45:56;1.00;;;0.40;;
75038;SDS011;63609;49.992;14.512;2023-03-14T05:48:33;1.15;;;0.50;;
75038;SDS011;63609;49.992;14.512;2023-03-14T05:51:15;1.50;;;0.70;;
75038;SDS011;63609;49.992;14.512;2023-03-14T05:54:02;2.63;;;0.80;;
75038;SDS011;63609;49.992;14.512;2023-03-14T05:56:59;1.60;;;0.60;;
75038;SDS011;63609;49.992;14.512;2023-03-14T05:59:42;0.95;;;0.50;;
75038;SDS011;63609;49.992;14.512;2023-03-14T06:05:11;1.00;;;0.50;;
75038;SDS011;63609;49.992;14.512;2023-03-14T06:07:40;1.00;;;0.40;;
75038;SDS011;63609;49.992;14.512;2023-03-14T06:10:07;1.45;;;0.40;;
75038;SDS011;63609;49.992;14.512;2023-03-14T06:12:39;0.93;;;0.40;;
75038;SDS011;63609;49.992;14.512;2023-03-14T06:15:07;0.77;;;0.43;;
75038;SDS011;63609;49.992;14.512;2023-03-14T06:17:37;0.98;;;0.40;;
75038;SDS011;63609;49.992;14.512;2023-03-14T06:20:10;1.65;;;0.70;;
75038;SDS011;63609;49.992;14.512;2023-03-14T06:22:39;1.25;;;0.60;;
75038;SDS011;63609;49.992;14.512;2023-03-14T06:25:07;1.88;;;0.70;;
75038;SDS011;63609;49.992;14.512;2023-03-14T06:27:35;1.38;;;0.63;;
75038;SDS011;63609;49.992;14.512;2023-03-14T06:30:03;1.67;;;0.65;;
75038;SDS011;63609;49.992;14.512;2023-03-14T06:32:34;1.33;;;0.60;;
75038;SDS011;63609;49.992;14.512;2023-03-14T06:35:06;1.38;;;0.60;;
75038;SDS011;63609;49.992;14.512;2023-03-14T06:37:37;1.52;;;0.63;;
75038;SDS011;63609;49.992;14.512;2023-03-14T06:40:04;1.55;;;0.60;;
75038;SDS011;63609;49.992;14.512;2023-03-14T06:42:48;1.00;;;0.60;;
75038;SDS011;63609;49.992;14.512;2023-03-14T06:45:16;1.33;;;0.70;;
75038;SDS011;63609;49.992;14.512;2023-03-14T06:47:44;1.73;;;0.73;;
75038;SDS011;63609;49.992;14.512;2023-03-14T06:50:12;0.80;;;0.40;;
75038;SDS011;63609;49.992;14.512;2023-03-14T06:52:40;2.53;;;0.70;;
75038;SDS011;63609;49.992;14.512;2023-03-14T06:55:16;1.65;;;0.60;;
75038;SDS011;63609;49.992;14.512;2023-03-14T06:57:48;1.08;;;0.60;;
75038;SDS011;63609;49.992;14.512;2023-03-14T07:00:20;2.22;;;0.70;;
75038;SDS011;63609;49.992;14.512;2023-03-14T07:02:53;2.63;;;0.60;;
75038;SDS011;63609;49.992;14.512;2023-03-14T07:05:26;2.13;;;0.80;;
75038;SDS011;63609;49.992;14.512;2023-03-14T07:07:55;1.15;;;0.50;;
75038;SDS011;63609;49.992;14.512;2023-03-14T07:10:25;2.28;;;0.70;;
75038;SDS011;63609;49.992;14.512;2023-03-14T07:12:53;2.85;;;0.73;;
75038;SDS011;63609;49.992;14.512;2023-03-14T07:15:25;1.80;;;0.88;;
75038;SDS011;63609;49.992;14.512;2023-03-14T07:18:00;2.40;;;0.98;;
75038;SDS011;63609;49.992;14.512;2023-03-14T07:20:30;1.13;;;0.60;;
75038;SDS011;63609;49.992;14.512;2023-03-14T07:23:02;3.35;;;0.80;;
75038;SDS011;63609;49.992;14.512;2023-03-14T07:25:42;5.50;;;1.42;;
75038;SDS011;63609;49.992;14.512;2023-03-14T07:28:14;1.98;;;0.73;;
75038;SDS011;63609;49.992;14.512;2023-03-14T07:30:48;1.85;;;0.88;;
75038;SDS011;63609;49.992;14.512;2023-03-14T07:33:27;4.20;;;1.23;;
75038;SDS011;63609;49.992;14.512;2023-03-14T07:35:57;1.75;;;0.32;;
75038;SDS011;63609;49.992;14.512;2023-03-14T07:38:29;2.38;;;0.70;;
75038;SDS011;63609;49.992;14.512;2023-03-14T07:41:32;2.03;;;0.70;;
75038;SDS011;63609;49.992;14.512;2023-03-14T07:44:22;1.45;;;0.55;;
75038;SDS011;63609;49.992;14.512;2023-03-14T07:46:50;1.85;;;0.68;;
75038;SDS011;63609;49.992;14.512;2023-03-14T07:49:18;2.00;;;0.70;;
75038;SDS011;63609;49.992;14.512;2023-03-14T07:51:49;2.95;;;0.90;;
75038;SDS011;63609;49.992;14.512;2023-03-14T07:54:17;2.97;;;0.65;;
75038;SDS011;63609;49.992;14.512;2023-03-14T07:56:47;1.75;;;0.80;;
75038;SDS011;63609;49.992;14.512;2023-03-14T07:59:14;4.90;;;1.10;;
75038;SDS011;63609;49.992;14.512;2023-03-14T08:01:42;2.10;;;0.88;;
75038;SDS011;63609;49.992;14.512;2023-03-14T08:04:10;2.83;;;0.50;;
75038;SDS011;63609;49.992;14.512;2023-03-14T08:06:38;1.90;;;0.70;;
75038;SDS011;63609;49.992;14.512;2023-03-14T08:09:10;1.23;;;0.65;;
75038;SDS011;63609;49.992;14.512;2023-03-14T08:11:37;1.35;;;0.65;;
75038;SDS011;63609;49.992;14.512;2023-03-14T08:14:05;2.42;;;0.52;;
75038;SDS011;63609;49.992;14.512;2023-03-14T08:16:33;1.25;;;0.60;;
75038;SDS011;63609;49.992;14.512;2023-03-14T08:19:00;1.30;;;0.68;;
75038;SDS011;63609;49.992;14.512;2023-03-14T08:21:28;2.65;;;0.40;;
75038;SDS011;63609;49.992;14.512;2023-03-14T08:23:55;1.40;;;0.63;;
75038;SDS011;63609;49.992;14.512;2023-03-14T08:26:23;2.90;;;0.63;;
75038;SDS011;63609;49.992;14.512;2023-03-14T08:28:54;49.55;;;7.47;;
75038;SDS011;63609;49.992;14.512;2023-03-14T08:31:22;13.05;;;1.65;;
75038;SDS011;63609;49.992;14.512;2023-03-14T08:33:49;0.90;;;0.60;;
75038;SDS011;63609;49.992;14.512;2023-03-14T08:36:19;1.98;;;1.15;;
75038;SDS011;63609;49.992;14.512;2023-03-14T08:38:49;6.18;;;1.13;;
75038;SDS011;63609;49.992;14.512;2023-03-14T08:41:16;2.10;;;0.82;;
75038;SDS011;63609;49.992;14.512;2023-03-14T08:43:43;1.65;;;0.68;;
75038;SDS011;63609;49.992;14.512;2023-03-14T08:46:11;1.88;;;0.60;;
75038;SDS011;63609;49.992;14.512;2023-03-14T08:48:38;1.30;;;0.50;;
75038;SDS011;63609;49.992;14.512;2023-03-14T08:51:10;1.52;;;0.55;;
75038;SDS011;63609;49.992;14.512;2023-03-14T08:53:41;1.20;;;0.47;;
75038;SDS011;63609;49.992;14.512;2023-03-14T08:56:09;0.93;;;0.40;;
75038;SDS011;63609;49.992;14.512;2023-03-14T08:58:45;0.68;;;0.43;;
75038;SDS011;63609;49.992;14.512;2023-03-14T09:01:13;1.45;;;0.60;;
75038;SDS011;63609;49.992;14.512;2023-03-14T09:03:41;1.20;;;0.50;;
75038;SDS011;63609;49.992;14.512;2023-03-14T09:06:12;2.15;;;0.70;;
75038;SDS011;63609;49.992;14.512;2023-03-14T09:08:45;1.33;;;0.60;;
75038;SDS011;63609;49.992;14.512;2023-03-14T09:11:15;2.33;;;0.70;;
75038;SDS011;63609;49.992;14.512;2023-03-14T09:13:45;1.65;;;0.70;;
75038;SDS011;63609;49.992;14.512;2023-03-14T09:16:16;0.80;;;0.50;;
75038;SDS011;63609;49.992;14.512;2023-03-14T09:18:45;1.38;;;0.70;;
75038;SDS011;63609;49.992;14.512;2023-03-14T09:21:13;2.53;;;0.60;;
75038;SDS011;63609;49.992;14.512;2023-03-14T09:23:40;2.50;;;0.73;;
75038;SDS011;63609;49.992;14.512;2023-03-14T09:26:09;1.17;;;0.55;;
75038;SDS011;63609;49.992;14.512;2023-03-14T09:28:37;2.83;;;1.20;;
75038;SDS011;63609;49.992;14.512;2023-03-14T09:31:07;2.80;;;0.82;;
75038;SDS011;63609;49.992;14.512;2023-03-14T09:33:36;1.67;;;0.80;;
75038;SDS011;63609;49.992;14.512;2023-03-14T09:36:07;2.08;;;0.60;;
75038;SDS011;63609;49.992;14.512;2023-03-14T09:38:34;3.90;;;0.65;;
75038;SDS011;63609;49.992;14.512;2023-03-14T09:41:10;1.15;;;0.65;;
75038;SDS011;63609;49.992;14.512;2023-03-14T09:43:44;1.13;;;0.65;;
75038;SDS011;63609;49.992;14.512;2023-03-14T09:46:25;1.13;;;0.30;;
75038;SDS011;63609;49.992;14.512;2023-03-14T09:48:54;3.63;;;0.63;;
75038;SDS011;63609;49.992;14.512;2023-03-14T09:51:22;1.40;;;0.50;;
75038;SDS011;63609;49.992;14.512;2023-03-14T09:53:50;1.38;;;0.45;;
75038;SDS011;63609;49.992;14.512;2023-03-14T09:56:23;1.25;;;0.40;;
75038;SDS011;63609;49.992;14.512;2023-03-14T09:58:57;1.10;;;0.47;;
75038;SDS011;63609;49.992;14.512;2023-03-14T10:01:29;3.78;;;0.40;;
75038;SDS011;63609;49.992;14.512;2023-03-14T10:04:00;0.88;;;0.60;;
75038;SDS011;63609;49.992;14.512;2023-03-14T10:06:33;2.15;;;0.80;;
75038;SDS011;63609;49.992;14.512;2023-03-14T10:09:02;1.50;;;0.90;;
75038;SDS011;63609;49.992;14.512;2023-03-14T10:11:31;3.35;;;1.00;;
75038;SDS011;63609;49.992;14.512;2023-03-14T10:14:06;3.13;;;1.48;;
75038;SDS011;63609;49.992;14.512;2023-03-14T10:16:36;1.90;;;0.60;;
75038;SDS011;63609;49.992;14.512;2023-03-14T10:19:18;0.57;;;0.38;;
75038;SDS011;63609;49.992;14.512;2023-03-14T10:21:51;0.43;;;0.43;;
75038;SDS011;63609;49.992;14.512;2023-03-14T10:26:52;1.90;;;0.60;;
75038;SDS011;63609;49.992;14.512;2023-03-14T10:29:25;1.10;;;0.40;;
75038;SDS011;63609;49.992;14.512;2023-03-14T10:34:38;0.73;;;0.50;;
75038;SDS011;63609;49.992;14.512;2023-03-14T10:37:22;1.00;;;0.30;;
75038;SDS011;63609;49.992;14.512;2023-03-14T10:39:54;0.80;;;0.32;;
75038;SDS011;63609;49.992;14.512;2023-03-14T10:42:41;0.70;;;0.30;;
75038;SDS011;63609;49.992;14.512;2023-03-14T10:45:36;2.00;;;0.40;;
75038;SDS011;63609;49.992;14.512;2023-03-14T10:48:17;0.73;;;0.50;;
75038;SDS011;63609;49.992;14.512;2023-03-14T10:50:53;1.02;;;0.38;;
75038;SDS011;63609;49.992;14.512;2023-03-14T10:53:21;1.17;;;0.40;;
75038;SDS011;63609;49.992;14.512;2023-03-14T10:55:53;1.15;;;0.45;;
75038;SDS011;63609;49.992;14.512;2023-03-14T10:58:26;2.30;;;0.57;;
75038;SDS011;63609;49.992;14.512;2023-03-14T11:03:49;0.98;;;0.40;;
75038;SDS011;63609;49.992;14.512;2023-03-14T11:06:28;1.17;;;0.60;;
75038;SDS011;63609;49.992;14.512;2023-03-14T11:09:02;1.83;;;0.47;;
75038;SDS011;63609;49.992;14.512;2023-03-14T11:11:36;0.98;;;0.35;;
75038;SDS011;63609;49.992;14.512;2023-03-14T11:17:22;0.32;;;0.30;;
75038;SDS011;63609;49.992;14.512;2023-03-14T11:20:04;1.58;;;0.50;;
75038;SDS011;63609;49.992;14.512;2023-03-14T11:22:59;0.85;;;0.40;;
75038;SDS011;63609;49.992;14.512;2023-03-14T11:28:21;2.30;;;0.68;;
75038;SDS011;63609;49.992;14.512;2023-03-14T11:31:29;0.55;;;0.20;;
75038;SDS011;63609;49.992;14.512;2023-03-14T11:39:36;1.35;;;0.70;;
75038;SDS011;63609;49.992;14.512;2023-03-14T11:42:10;2.75;;;0.63;;
75038;SDS011;63609;49.992;14.512;2023-03-14T11:44:41;1.08;;;0.50;;
75038;SDS011;63609;49.992;14.512;2023-03-14T11:47:20;0.95;;;0.47;;
75038;SDS011;63609;49.992;14.512;2023-03-14T11:52:57;1.17;;;0.90;;
75038;SDS011;63609;49.992;14.512;2023-03-14T11:55:34;1.20;;;0.55;;
75038;SDS011;63609;49.992;14.512;2023-03-14T11:58:09;0.70;;;0.43;;
75038;SDS011;63609;49.992;14.512;2023-03-14T12:00:39;1.02;;;0.40;;
75038;SDS011;63609;49.992;14.512;2023-03-14T12:03:14;3.53;;;0.50;;
75038;SDS011;63609;49.992;14.512;2023-03-14T12:05:57;1.08;;;0.30;;
75038;SDS011;63609;49.992;14.512;2023-03-14T12:14:22;0.47;;;0.30;;
75038;SDS011;63609;49.992;14.512;2023-03-14T12:20:11;0.57;;;0.20;;
75038;SDS011;63609;49.992;14.512;2023-03-14T12:22:53;1.42;;;0.55;;
75038;SDS011;63609;49.992;14.512;2023-03-14T12:25:41;0.77;;;0.20;;
75038;SDS011;63609;49.992;14.512;2023-03-14T12:28:19;2.28;;;0.60;;
75038;SDS011;63609;49.992;14.512;2023-03-14T12:30:48;0.95;;;0.38;;
75038;SDS011;63609;49.992;14.512;2023-03-14T12:35:44;0.65;;;0.30;;
75038;SDS011;63609;49.992;14.512;2023-03-14T12:43:34;0.63;;;0.30;;
75038;SDS011;63609;49.992;14.512;2023-03-14T12:46:08;1.15;;;0.30;;
75038;SDS011;63609;49.992;14.512;2023-03-14T12:48:45;1.27;;;0.30;;
75038;SDS011;63609;49.992;14.512;2023-03-14T12:51:56;2.70;;;0.75;;
75038;SDS011;63609;49.992;14.512;2023-03-14T12:54:33;0.57;;;0.30;;
75038;SDS011;63609;49.992;14.512;2023-03-14T13:00:18;0.77;;;0.43;;
75038;SDS011;63609;49.992;14.512;2023-03-14T13:02:47;1.33;;;0.45;;
75038;SDS011;63609;49.992;14.512;2023-03-14T13:05:23;0.90;;;0.45;;
75038;SDS011;63609;49.992;14.512;2023-03-14T13:10:38;1.58;;;0.43;;
75038;SDS011;63609;49.992;14.512;2023-03-14T13:13:15;1.85;;;0.50;;
75038;SDS011;63609;49.992;14.512;2023-03-14T13:15:53;4.25;;;0.70;;
75038;SDS011;63609;49.992;14.512;2023-03-14T13:18:38;4.03;;;0.68;;
75038;SDS011;63609;49.992;14.512;2023-03-14T13:21:19;1.15;;;0.52;;
75038;SDS011;63609;49.992;14.512;2023-03-14T13:26:25;3.00;;;1.17;;
75038;SDS011;63609;49.992;14.512;2023-03-14T13:29:16;2.17;;;0.75;;
75038;SDS011;63609;49.992;14.512;2023-03-14T13:31:45;0.82;;;0.47;;
75038;SDS011;63609;49.992;14.512;2023-03-14T13:34:15;1.20;;;0.65;;
75038;SDS011;63609;49.992;14.512;2023-03-14T13:36:51;3.72;;;0.80;;
75038;SDS011;63609;49.992;14.512;2023-03-14T13:39:24;1.35;;;0.60;;
75038;SDS011;63609;49.992;14.512;2023-03-14T13:41:53;1.60;;;0.55;;
75038;SDS011;63609;49.992;14.512;2023-03-14T13:45:18;0.70;;;0.40;;
75038;SDS011;63609;49.992;14.512;2023-03-14T13:47:51;2.95;;;0.52;;
75038;SDS011;63609;49.992;14.512;2023-03-14T13:50:19;2.28;;;0.98;;
75038;SDS011;63609;49.992;14.512;2023-03-14T13:52:54;1.10;;;0.60;;
75038;SDS011;63609;49.992;14.512;2023-03-14T13:55:24;2.60;;;1.23;;
75038;SDS011;63609;49.992;14.512;2023-03-14T13:58:03;3.20;;;0.73;;
75038;SDS011;63609;49.992;14.512;2023-03-14T14:00:31;1.83;;;0.70;;
75038;SDS011;63609;49.992;14.512;2023-03-14T14:03:00;1.48;;;0.70;;
75038;SDS011;63609;49.992;14.512;2023-03-14T14:05:29;2.05;;;0.60;;
75038;SDS011;63609;49.992;14.512;2023-03-14T14:07:58;2.33;;;0.43;;
75038;SDS011;63609;49.992;14.512;2023-03-14T14:10:28;1.60;;;0.55;;
75038;SDS011;63609;49.992;14.512;2023-03-14T14:13:00;0.75;;;0.32;;
75038;SDS011;63609;49.992;14.512;2023-03-14T14:15:32;1.25;;;0.50;;
75038;SDS011;63609;49.992;14.512;2023-03-14T14:18:04;1.15;;;0.40;;
75038;SDS011;63609;49.992;14.512;2023-03-14T14:20:41;1.65;;;0.77;;
75038;SDS011;63609;49.992;14.512;2023-03-14T14:25:44;1.92;;;1.02;;
75038;SDS011;63609;49.992;14.512;2023-03-14T14:33:43;2.65;;;0.65;;
75038;SDS011;63609;49.992;14.512;2023-03-14T14:36:19;2.20;;;0.70;;
75038;SDS011;63609;49.992;14.512;2023-03-14T14:38:58;2.00;;;0.73;;
75038;SDS011;63609;49.992;14.512;2023-03-14T14:41:33;1.48;;;0.60;;
75038;SDS011;63609;49.992;14.512;2023-03-14T14:44:11;2.53;;;0.80;;
75038;SDS011;63609;49.992;14.512;2023-03-14T14:46:40;1.33;;;0.60;;
75038;SDS011;63609;49.992;14.512;2023-03-14T14:49:10;1.65;;;0.68;;
75038;SDS011;63609;49.992;14.512;2023-03-14T14:51:43;2.22;;;0.90;;
75038;SDS011;63609;49.992;14.512;2023-03-14T14:54:31;2.85;;;0.93;;
75038;SDS011;63609;49.992;14.512;2023-03-14T14:57:02;1.92;;;0.63;;
75038;SDS011;63609;49.992;14.512;2023-03-14T15:04:59;1.83;;;0.70;;
75038;SDS011;63609;49.992;14.512;2023-03-14T15:07:28;2.00;;;0.70;;
75038;SDS011;63609;49.992;14.512;2023-03-14T15:09:55;1.40;;;0.60;;
75038;SDS011;63609;49.992;14.512;2023-03-14T15:12:22;1.30;;;0.70;;
75038;SDS011;63609;49.992;14.512;2023-03-14T15:14:51;1.60;;;0.63;;
75038;SDS011;63609;49.992;14.512;2023-03-14T15:17:18;1.65;;;1.08;;
75038;SDS011;63609;49.992;14.512;2023-03-14T15:19:48;3.97;;;1.00;;
75038;SDS011;63609;49.992;14.512;2023-03-14T15:22:15;2.38;;;0.80;;
75038;SDS011;63609;49.992;14.512;2023-03-14T15:24:43;3.70;;;0.70;;
75038;SDS011;63609;49.992;14.512;2023-03-14T15:27:12;3.00;;;1.10;;
75038;SDS011;63609;49.992;14.512;2023-03-14T15:29:41;2.70;;;0.90;;
75038;SDS011;63609;49.992;14.512;2023-03-14T15:32:12;2.60;;;0.70;;
75038;SDS011;63609;49.992;14.512;2023-03-14T15:34:42;1.60;;;0.70;;
75038;SDS011;63609;49.992;14.512;2023-03-14T15:37:16;1.50;;;0.80;;
75038;SDS011;63609;49.992;14.512;2023-03-14T15:39:45;1.30;;;0.60;;
75038;SDS011;63609;49.992;14.512;2023-03-14T15:42:16;2.03;;;0.90;;
75038;SDS011;63609;49.992;14.512;2023-03-14T15:44:44;2.60;;;1.20;;
75038;SDS011;63609;49.992;14.512;2023-03-14T15:47:11;2.20;;;0.90;;
75038;SDS011;63609;49.992;14.512;2023-03-14T15:49:38;2.85;;;1.10;;
75038;SDS011;63609;49.992;14.512;2023-03-14T15:52:07;3.53;;;1.20;;
75038;SDS011;63609;49.992;14.512;2023-03-14T15:54:35;1.50;;;0.90;;
75038;SDS011;63609;49.992;14.512;2023-03-14T15:57:02;2.05;;;0.70;;
75038;SDS011;63609;49.992;14.512;2023-03-14T15:59:30;3.83;;;0.98;;
75038;SDS011;63609;49.992;14.512;2023-03-14T16:01:58;4.32;;;1.00;;
75038;SDS011;63609;49.992;14.512;2023-03-14T16:04:26;3.00;;;0.77;;
75038;SDS011;63609;49.992;14.512;2023-03-14T16:06:55;1.63;;;0.85;;
75038;SDS011;63609;49.992;14.512;2023-03-14T16:09:22;2.03;;;1.13;;
75038;SDS011;63609;49.992;14.512;2023-03-14T16:11:51;3.38;;;0.90;;
75038;SDS011;63609;49.992;14.512;2023-03-14T16:14:18;2.30;;;1.00;;
75038;SDS011;63609;49.992;14.512;2023-03-14T16:16:51;3.05;;;1.00;;
75038;SDS011;63609;49.992;14.512;2023-03-14T16:19:19;2.58;;;1.10;;
75038;SDS011;63609;49.992;14.512;2023-03-14T16:21:47;3.10;;;1.20;;
75038;SDS011;63609;49.992;14.512;2023-03-14T16:24:17;3.38;;;1.38;;
75038;SDS011;63609;49.992;14.512;2023-03-14T16:26:48;2.92;;;1.23;;